Time;durP1;ratioP1;P1;durP2;ratioP2;P2;SDS_P1;SDS_P2;PMS_P1;PMS_P2;Temp;Humidity;BMP_temperature;BMP_pressure;BME280_temperature;BME280_humidity;BME280_pressure;Samples;Min_cycle;Max_cycle;Signal;HPM_P1;HPM_P2
2022/05/08 00:00:26;;;;;;;20.63;17.02;;;15.20;69.20;;;11.24;83.66;95896.25;5072411;28;20108;-56
2022/05/08 00:02:57;;;;;;;18.63;15.73;;;15.20;69.10;;;11.24;83.71;95896.25;5054080;28;20028;-55
2022/05/08 00:05:28;;;;;;;19.10;15.98;;;15.20;69.10;;;11.24;83.64;95896.25;5066987;28;20487;-55
2022/05/08 00:07:54;;;;;;;19.02;15.98;;;15.20;69.10;;;11.22;83.70;95895.72;5053856;28;20048;-52
2022/05/08 00:10:20;;;;;;;20.77;16.10;;;15.10;68.90;;;11.21;83.63;95896.75;5058278;28;20033;-52
2022/05/08 00:12:46;;;;;;;18.15;15.45;;;15.10;68.90;;;11.26;83.43;95898.66;5050506;28;20074;-53
2022/05/08 00:15:12;;;;;;;16.65;14.15;;;15.20;68.90;;;11.21;83.41;95898.63;5051720;28;20056;-51
2022/05/08 00:17:44;;;;;;;19.92;15.05;;;15.10;68.90;;;11.20;83.51;95889.03;5033816;28;20031;-50
2022/05/08 00:20:13;;;;;;;17.67;14.48;;;15.10;68.90;;;11.18;83.54;95897.28;5050104;28;20400;-51
2022/05/08 00:22:45;;;;;;;17.75;15.40;;;15.10;68.90;;;11.14;83.38;95896.22;5050575;28;20032;-53
2022/05/08 00:25:13;;;;;;;16.85;14.45;;;15.10;68.90;;;11.13;83.49;95889.28;5050445;28;20059;-50
2022/05/08 00:27:39;;;;;;;17.77;13.55;;;15.10;68.90;;;11.13;83.16;95888.47;5033882;28;20041;-50
2022/05/08 00:30:05;;;;;;;17.38;14.25;;;15.10;68.90;;;11.14;83.20;95890.88;5033902;28;20418;-52
2022/05/08 00:32:31;;;;;;;16.70;14.10;;;15.10;68.90;;;11.13;83.11;95894.59;5051760;28;20062;-52
2022/05/08 00:35:00;;;;;;;18.45;14.25;;;15.10;68.90;;;11.09;82.91;95880.19;5051793;28;20029;-50
2022/05/08 00:37:26;;;;;;;17.58;14.98;;;15.10;68.90;;;11.12;83.14;95895.66;5067822;28;20028;-55
2022/05/08 00:39:54;;;;;;;19.25;14.88;;;15.10;68.90;;;11.10;82.96;95895.94;5051300;28;20020;-53
2022/05/08 00:42:27;;;;;;;15.68;13.98;;;15.10;68.90;;;11.07;83.03;95890.31;5050458;28;20483;-50
2022/05/08 00:44:53;;;;;;;17.25;14.57;;;15.10;68.90;;;11.10;83.07;95893.25;5034343;28;20017;-54
2022/05/08 00:47:21;;;;;;;19.35;14.80;;;15.10;68.90;;;11.09;83.42;95889.00;5051603;28;20480;-56
2022/05/08 00:49:54;;;;;;;18.50;14.48;;;15.10;69.00;;;11.08;83.35;95892.72;5055303;28;20396;-55
2022/05/08 00:52:20;;;;;;;17.00;14.00;;;15.00;68.90;;;11.05;83.16;95879.91;5045961;28;20040;-51
2022/05/08 00:54:52;;;;;;;18.42;14.57;;;15.00;68.80;;;11.03;83.67;95884.72;5055254;28;20029;-51
2022/05/08 00:57:18;;;;;;;20.92;14.52;;;15.00;68.90;;;10.99;83.68;95880.94;5053830;28;20033;-52
2022/05/08 00:59:50;;;;;;;17.67;13.57;;;15.00;68.90;;;11.01;83.65;95884.16;5053603;28;20029;-51
2022/05/08 01:02:19;;;;;;;16.50;14.70;;;15.00;69.00;;;10.94;84.13;95882.78;5054976;28;20025;-52
2022/05/08 01:04:48;;;;;;;17.33;14.85;;;15.00;69.00;;;10.92;84.25;95883.03;5054843;28;20060;-53
2022/05/08 01:07:13;;;;;;;16.98;14.27;;;14.90;69.00;;;10.92;84.20;95885.69;5053284;28;20139;-54
2022/05/08 01:09:46;;;;;;;20.40;15.25;;;14.90;69.10;;;10.92;84.21;95884.91;5053776;28;20103;-51
2022/05/08 01:12:15;;;;;;;19.35;14.82;;;14.90;69.20;;;10.87;84.36;95880.34;5053731;28;20032;-53
2022/05/08 01:14:40;;;;;;;19.05;14.48;;;14.90;69.20;;;10.86;84.64;95882.19;5053709;28;20041;-52
2022/05/08 01:17:06;;;;;;;18.75;14.45;;;14.90;69.30;;;10.82;84.55;95875.00;5053272;28;20126;-54
2022/05/08 01:19:32;;;;;;;17.70;14.32;;;14.90;69.30;;;10.84;84.82;95887.00;5054730;28;20075;-52
2022/05/08 01:22:00;;;;;;;17.58;13.45;;;14.90;69.40;;;10.78;85.04;95890.72;5054925;28;20049;-50
2022/05/08 01:24:26;;;;;;;20.73;14.98;;;14.90;69.50;;;10.78;84.96;95879.22;5053462;28;20096;-51
2022/05/08 01:26:54;;;;;;;18.90;14.65;;;14.80;69.50;;;10.80;84.92;95877.13;5054614;28;20132;-53
2022/05/08 01:29:26;;;;;;;18.67;14.60;;;14.80;69.60;;;10.78;84.94;95890.72;5054683;28;20071;-49
2022/05/08 01:31:58;;;;;;;18.75;14.00;;;14.80;69.70;;;10.78;85.02;95887.22;5054317;28;20037;-50
2022/05/08 01:34:26;;;;;;;18.27;13.73;;;14.80;69.70;;;10.75;85.11;95883.22;5054617;28;20083;-51
2022/05/08 01:36:52;;;;;;;20.83;14.77;;;14.80;69.70;;;10.74;84.86;95886.94;5066104;28;20294;-51
2022/05/08 01:39:18;;;;;;;17.50;14.13;;;14.80;69.80;;;10.70;84.97;95888.50;5074513;28;20029;-52
2022/05/08 01:41:43;;;;;;;16.83;12.88;;;14.70;69.70;;;10.66;85.02;95879.44;5074315;28;20035;-53
2022/05/08 01:44:09;;;;;;;17.63;14.57;;;14.70;69.80;;;10.67;84.87;95890.91;5074232;28;20056;-52
2022/05/08 01:46:37;;;;;;;21.15;14.45;;;14.70;69.80;;;10.61;85.10;95879.41;5074182;28;20438;-53
2022/05/08 01:49:12;;;;;;;16.85;13.43;;;14.70;69.90;;;10.61;85.25;95882.06;5074250;28;20032;-51
2022/05/08 01:51:38;;;;;;;18.80;14.95;;;14.60;70.00;;;10.57;85.30;95876.44;5072924;28;20125;-52
2022/05/08 01:54:05;;;;;;;18.10;14.18;;;14.60;70.00;;;10.53;85.20;95877.22;5074146;28;20095;-50
2022/05/08 01:56:31;;;;;;;16.15;13.27;;;14.60;70.10;;;10.55;85.42;95891.88;5053349;28;20025;-53
2022/05/08 01:59:03;;;;;;;18.65;13.68;;;14.60;70.20;;;10.57;85.15;95888.97;5066256;28;20027;-52
2022/05/08 02:01:38;;;;;;;17.17;13.45;;;14.60;70.30;;;10.61;85.20;95884.72;5073682;28;20036;-53
2022/05/08 02:04:04;;;;;;;16.17;13.68;;;14.60;70.30;;;10.63;85.04;95893.28;5042999;28;20065;-51
2022/05/08 02:06:30;;;;;;;16.92;13.27;;;14.60;70.30;;;10.66;84.98;95890.09;5064088;28;20076;-54
2022/05/08 02:08:56;;;;;;;16.05;13.30;;;14.60;70.30;;;10.61;84.84;95890.84;5081177;28;20020;-52
2022/05/08 02:11:24;;;;;;;15.40;12.85;;;14.60;70.30;;;10.63;84.87;95898.59;5035786;28;20545;-53
2022/05/08 02:13:53;;;;;;;18.10;12.35;;;14.60;70.40;;;10.67;84.79;95894.34;5054241;28;20065;-56
2022/05/08 02:16:25;;;;;;;18.02;13.25;;;14.60;70.40;;;10.65;84.73;95891.97;5053746;28;20029;-51
2022/05/08 02:18:51;;;;;;;15.13;12.80;;;14.60;70.40;;;10.71;84.77;95889.31;5052519;28;20032;-54
2022/05/08 02:21:17;;;;;;;14.48;11.82;;;14.60;70.20;;;10.72;84.55;95891.72;5053581;28;20104;-54
2022/05/08 02:23:52;;;;;;;15.15;12.23;;;14.60;70.20;;;10.72;84.68;95890.91;5052209;28;20045;-57
2022/05/08 02:26:39;;;;;;;16.15;12.80;;;14.60;70.20;;;10.67;84.79;95885.56;5052710;28;20025;-51
2022/05/08 02:29:10;;;;;;;14.00;12.05;;;14.60;70.20;;;10.65;84.72;95883.16;5053754;28;20025;-56
2022/05/08 02:31:39;;;;;;;14.93;11.98;;;14.60;70.20;;;10.62;84.56;95883.66;5054040;28;20028;-57
2022/05/08 02:34:05;;;;;;;13.68;12.18;;;14.60;70.20;;;10.65;84.38;95889.31;5065547;28;20036;-55
2022/05/08 02:36:31;;;;;;;15.95;12.75;;;14.60;70.10;;;10.62;84.61;95879.16;5062098;28;20028;-54
2022/05/08 02:38:56;;;;;;;16.30;13.07;;;14.60;70.10;;;10.61;84.68;95893.53;5072001;28;20069;-54
2022/05/08 02:41:22;;;;;;;14.85;12.88;;;14.60;70.10;;;10.62;84.66;95889.81;5072197;28;20115;-53
2022/05/08 02:43:51;;;;;;;16.92;12.88;;;14.60;70.10;;;10.62;84.63;95886.31;5073214;28;20029;-56
2022/05/08 02:46:19;;;;;;;15.23;12.38;;;14.60;70.10;;;10.61;84.52;95887.41;5058592;28;20054;-56
2022/05/08 02:48:48;;;;;;;17.13;12.88;;;14.60;70.10;;;10.62;84.59;95888.97;5073469;28;20044;-56
2022/05/08 02:51:14;;;;;;;17.25;12.23;;;14.60;70.10;;;10.58;84.48;95882.56;5058223;28;20090;-52
2022/05/08 02:53:39;;;;;;;16.23;12.10;;;14.50;70.00;;;10.55;84.57;95881.22;5073011;28;20111;-52
2022/05/08 02:58:55;;;;;;;14.93;11.43;;;14.60;70.20;;;10.55;84.66;95885.75;5073000;28;20036;-55
2022/05/08 03:01:24;;;;;;;13.48;11.02;;;14.50;70.10;;;10.48;84.49;95883.31;5052031;28;20025;-55
2022/05/08 03:04:02;;;;;;;14.85;12.13;;;14.50;70.20;;;10.54;84.57;95881.50;5066115;28;20067;-52
2022/05/08 03:06:28;;;;;;;14.32;11.63;;;14.50;70.20;;;10.54;84.70;95884.94;5063063;28;20136;-56
2022/05/08 03:09:00;;;;;;;13.02;11.25;;;14.50;70.10;;;10.55;84.50;95883.09;5067592;28;20458;-53
2022/05/08 03:11:29;;;;;;;12.23;10.82;;;14.50;70.10;;;10.51;84.42;95874.81;5055148;28;20111;-52
2022/05/08 03:14:01;;;;;;;12.98;10.57;;;14.50;70.10;;;10.55;84.37;95883.88;5056560;28;20037;-53
2022/05/08 03:16:29;;;;;;;13.27;11.18;;;14.50;70.10;;;10.48;84.61;95877.19;5035141;28;20120;-53
2022/05/08 03:18:58;;;;;;;14.27;10.68;;;14.50;70.10;;;10.52;84.42;95883.59;5051291;28;20024;-54
2022/05/08 03:21:24;;;;;;;13.77;10.52;;;14.50;70.10;;;10.50;84.43;95875.06;5051346;28;20033;-53
2022/05/08 03:23:59;;;;;;;13.02;10.80;;;14.50;70.10;;;10.53;84.51;95879.88;5051342;28;20492;-55
2022/05/08 03:26:28;;;;;;;13.32;10.75;;;14.50;70.20;;;10.50;84.45;95875.88;5052545;28;20025;-55
2022/05/08 03:29:00;;;;;;;13.00;10.75;;;14.50;70.10;;;10.47;84.67;95872.94;5051274;28;20403;-55
2022/05/08 03:31:26;;;;;;;12.98;10.88;;;14.50;70.20;;;10.43;84.74;95864.63;5051101;28;20048;-53
2022/05/08 03:34:01;;;;;;;14.13;11.02;;;14.40;70.10;;;10.46;84.67;95877.44;5059145;28;20072;-54
2022/05/08 03:36:26;;;;;;;14.43;10.98;;;14.40;70.10;;;10.45;84.74;95875.03;5072094;28;20021;-54
2022/05/08 03:38:58;;;;;;;14.07;11.30;;;14.40;70.10;;;10.44;84.88;95876.91;5072150;28;20021;-52
2022/05/08 03:41:27;;;;;;;15.18;10.82;;;14.40;70.20;;;10.46;84.79;95868.66;5057676;28;20025;-56
2022/05/08 03:43:53;;;;;;;14.65;11.10;;;14.40;70.10;;;10.40;84.67;95865.13;5072243;28;20109;-53
2022/05/08 03:46:22;;;;;;;12.68;10.93;;;14.40;70.10;;;10.43;84.94;95872.63;5052408;28;20131;-53
2022/05/08 03:48:48;;;;;;;14.65;11.05;;;14.40;70.20;;;10.38;84.71;95870.72;5052276;28;20480;-53
2022/05/08 03:51:13;;;;;;;12.88;10.90;;;14.40;70.10;;;10.34;84.82;95866.16;5052026;28;20035;-54
2022/05/08 03:53:39;;;;;;;15.20;11.38;;;14.40;70.10;;;10.35;85.05;95873.13;5051355;28;20106;-51
2022/05/08 03:56:05;;;;;;;13.90;11.70;;;14.40;70.10;;;10.32;84.85;95874.41;5051984;28;20044;-51
2022/05/08 03:58:34;;;;;;;12.82;11.30;;;14.30;70.00;;;10.28;85.18;95872.50;5050770;28;20032;-54
2022/05/08 04:01:00;;;;;;;14.73;11.73;;;14.30;70.10;;;10.26;85.48;95869.28;5034197;28;20025;-52
2022/05/08 04:03:25;;;;;;;17.08;11.23;;;14.30;70.10;;;10.22;85.38;95871.66;5052042;28;20091;-56
2022/05/08 04:05:54;;;;;;;15.50;11.93;;;14.30;70.10;;;10.22;85.49;95876.19;5050571;28;20946;-54
2022/05/08 04:08:23;;;;;;;16.60;12.38;;;14.20;70.10;;;10.15;85.83;95868.38;5050687;28;20052;-53
2022/05/08 04:11:02;;;;;;;18.75;12.93;;;14.20;70.20;;;10.12;85.99;95879.53;5050821;28;20029;-51
2022/05/08 04:13:27;;;;;;;15.25;12.18;;;14.20;70.40;;;10.10;86.11;95876.34;5050799;28;20028;-52
2022/05/08 04:16:17;;;;;;;15.77;12.23;;;14.10;70.20;;;10.03;86.31;95871.25;5051881;28;20025;-53
2022/05/08 04:18:44;;;;;;;17.20;12.88;;;14.10;70.40;;;9.98;86.78;95867.72;5050883;28;20483;-53
2022/05/08 04:21:10;;;;;;;16.58;12.38;;;14.10;70.40;;;10.04;86.73;95880.03;5051995;28;20021;-55
2022/05/08 04:26:26;;;;;;;16.27;13.35;;;14.10;70.60;;;10.09;86.73;95878.22;5063583;28;20091;-56
2022/05/08 04:29:01;;;;;;;15.45;12.82;;;14.10;70.70;;;10.09;86.50;95886.19;5074144;28;20032;-56
2022/05/08 04:31:27;;;;;;;16.77;12.73;;;14.20;71.00;;;10.10;86.63;95887.00;5075764;28;20032;-56
2022/05/08 04:33:53;;;;;;;17.42;13.32;;;14.20;70.90;;;10.15;86.49;95885.19;5037849;28;20040;-52
2022/05/08 04:36:21;;;;;;;16.00;12.32;;;14.20;71.00;;;10.17;86.29;95891.03;5068706;28;20480;-55
2022/05/08 04:38:53;;;;;;;15.05;12.13;;;14.30;71.80;;;10.19;86.55;95896.13;5070717;28;20025;-51
2022/05/08 04:41:19;;;;;;;15.00;12.20;;;14.30;71.10;;;10.27;86.24;95897.53;5067604;28;20078;-54
2022/05/08 04:43:45;;;;;;;16.45;11.82;;;14.30;71.00;;;10.32;86.11;95900.25;5054246;28;20029;-52
2022/05/08 04:46:13;;;;;;;15.43;12.77;;;14.40;71.10;;;10.35;85.97;95892.56;5055353;28;20120;-52
2022/05/08 04:48:42;;;;;;;15.13;12.13;;;14.40;71.10;;;10.41;85.48;95898.72;5042571;28;20392;-51
2022/05/08 04:51:10;;;;;;;14.40;11.90;;;14.50;71.10;;;10.52;85.44;95903.03;5055378;28;20025;-53
2022/05/08 04:53:36;;;;;;;12.13;10.60;;;14.60;71.00;;;10.56;85.35;95898.00;5055331;28;20021;-56
2022/05/08 04:56:02;;;;;;;14.75;12.32;;;14.60;70.90;;;10.62;85.07;95905.78;5055024;28;20070;-54
2022/05/08 04:58:31;;;;;;;14.70;12.23;;;14.70;70.80;;;10.64;85.03;95900.19;5026307;28;20025;-53
2022/05/08 05:00:58;;;;;;;15.20;12.30;;;14.80;70.80;;;10.71;84.82;95914.09;5056246;28;20029;-55
2022/05/08 05:03:29;;;;;;;15.25;11.77;;;14.80;70.60;;;10.74;84.81;95907.44;5075259;28;20031;-53
2022/05/08 05:05:57;;;;;;;13.45;11.43;;;14.90;70.60;;;10.80;84.63;95901.88;5060397;28;20510;-54
2022/05/08 05:08:28;;;;;;;16.40;11.38;;;14.90;70.40;;;10.87;84.44;95912.31;5096412;28;20050;-55
2022/05/08 05:10:54;;;;;;;13.00;11.00;;;15.00;70.30;;;10.83;84.45;95903.25;5077095;28;20183;-54
2022/05/08 05:13:23;;;;;;;13.68;11.40;;;15.00;70.20;;;10.88;84.42;95909.41;5077062;28;20584;-53
2022/05/08 05:15:57;;;;;;;12.82;10.73;;;15.10;70.10;;;10.86;84.01;95911.53;5059227;28;20303;-52
2022/05/08 05:18:25;;;;;;;13.05;11.05;;;15.20;70.00;;;10.89;83.92;95912.88;5087474;28;20035;-54
2022/05/08 05:20:51;;;;;;;13.05;10.82;;;15.20;69.80;;;10.97;83.89;95916.91;5040945;28;20032;-56
2022/05/08 05:23:20;;;;;;;13.75;11.73;;;15.20;69.70;;;10.99;84.01;95915.59;5076063;28;20076;-53
2022/05/08 05:25:49;;;;;;;16.80;11.20;;;15.30;69.60;;;11.03;83.63;95918.53;5057280;28;20093;-52
2022/05/08 05:28:16;;;;;;;14.70;11.93;;;15.30;69.50;;;11.02;83.64;95914.28;5049421;28;20016;-54
2022/05/08 05:30:45;;;;;;;12.93;11.48;;;15.40;69.40;;;11.05;83.56;95913.75;5067621;28;20021;-56
2022/05/08 05:33:15;;;;;;;12.73;10.75;;;15.40;69.30;;;11.04;83.58;95907.63;5087309;28;20028;-56
2022/05/08 05:35:44;;;;;;;13.82;11.63;;;15.50;69.30;;;11.15;83.63;95921.00;5078847;28;20475;-54
2022/05/08 05:38:13;;;;;;;12.02;10.68;;;15.50;69.10;;;11.23;82.96;95918.66;5094640;28;20036;-55
2022/05/08 05:40:39;;;;;;;15.35;10.50;;;15.60;69.00;;;11.31;82.98;95923.50;5036611;28;20024;-55
2022/05/08 05:43:04;;;;;;;13.63;10.35;;;15.60;68.90;;;11.32;82.59;95925.09;5094363;28;20035;-56
2022/05/08 05:45:33;;;;;;;12.02;10.68;;;15.70;68.70;;;11.28;82.39;95923.19;5068024;28;20386;-55
2022/05/08 05:48:00;;;;;;;13.02;10.75;;;15.80;68.50;;;11.30;82.49;95927.19;5090315;28;20110;-56
2022/05/08 05:50:35;;;;;;;12.35;10.82;;;15.80;68.30;;;11.43;82.31;95922.44;5079360;28;20538;-56
2022/05/08 05:53:01;;;;;;;11.77;10.32;;;15.90;68.20;;;11.54;81.96;95926.78;5062302;28;20060;-55
2022/05/08 05:55:29;;;;;;;12.30;10.18;;;16.00;68.00;;;11.60;81.55;95919.59;5079064;28;20062;-55
2022/05/08 05:57:55;;;;;;;13.75;10.55;;;16.20;67.80;;;11.70;81.86;95931.09;5080712;28;20513;-55
2022/05/08 06:00:21;;;;;;;12.68;10.63;;;16.40;67.70;;;11.74;81.88;95926.81;5082764;28;20024;-54
2022/05/08 06:02:49;;;;;;;12.07;9.55;;;16.50;67.40;;;11.92;81.13;95935.44;5074656;28;20039;-56
2022/05/08 06:05:15;;;;;;;10.63;9.52;;;16.70;67.20;;;12.10;80.35;95932.28;5077296;28;20445;-56
2022/05/08 06:07:42;;;;;;;12.48;10.02;;;16.90;66.70;;;12.20;79.83;95939.50;5077203;28;20084;-55
2022/05/08 06:10:10;;;;;;;11.10;9.88;;;17.00;66.20;;;12.29;79.04;95939.78;5081856;28;20027;-53
2022/05/08 06:12:36;;;;;;;10.27;9.18;;;17.20;66.40;;;12.35;79.28;95938.69;5074191;28;20033;-54
2022/05/08 06:15:03;;;;;;;13.20;10.43;;;17.30;65.30;;;12.51;79.14;95945.66;5083000;28;20036;-55
2022/05/08 06:17:29;;;;;;;11.82;10.52;;;17.40;65.20;;;12.57;78.94;95939.22;5070165;28;20032;-56
2022/05/08 06:20:04;;;;;;;11.32;10.07;;;17.50;64.80;;;12.75;77.87;95932.50;5086410;28;20431;-55
2022/05/08 06:22:30;;;;;;;10.98;9.77;;;17.80;64.40;;;12.90;77.76;95942.41;5076411;28;20028;-56
2022/05/08 06:24:56;;;;;;;10.88;9.13;;;18.00;64.00;;;13.07;75.88;95934.88;5075590;28;20107;-55
2022/05/08 06:27:25;;;;;;;13.55;9.10;;;18.30;63.10;;;13.22;75.69;95946.59;5062800;28;20251;-55
2022/05/08 06:29:51;;;;;;;10.57;8.90;;;18.60;62.40;;;13.22;75.75;95942.03;5075195;28;20035;-53
2022/05/08 06:32:17;;;;;;;10.07;8.60;;;18.80;61.70;;;13.37;75.60;95943.91;5072333;28;20566;-54
2022/05/08 06:34:43;;;;;;;14.63;9.63;;;18.90;61.30;;;13.25;75.17;95943.41;5073327;28;20213;-54
2022/05/08 06:37:11;;;;;;;11.88;8.77;;;19.00;60.50;;;13.42;74.33;95949.25;5087323;28;20118;-55
2022/05/08 06:39:40;;;;;;;9.27;8.30;;;19.20;60.00;;;13.54;73.18;95932.88;5061543;28;20471;-53
2022/05/08 06:42:06;;;;;;;10.43;8.38;;;19.50;59.30;;;13.80;73.96;95950.41;5067796;28;20376;-54
2022/05/08 06:44:32;;;;;;;10.38;8.05;;;19.80;58.80;;;13.97;72.71;95933.19;5087554;28;20024;-57
2022/05/08 06:47:07;;;;;;;9.18;8.30;;;20.00;58.40;;;14.09;72.64;95939.78;5092825;28;20031;-54
2022/05/08 06:49:32;;;;;;;7.97;7.18;;;20.30;57.50;;;14.43;71.16;95941.72;5091063;28;20059;-54
2022/05/08 06:52:01;;;;;;;10.15;8.07;;;20.40;57.20;;;14.43;70.87;95941.72;5063664;28;20059;-56
2022/05/08 06:54:34;;;;;;;9.57;8.32;;;20.50;57.00;;;14.28;71.86;95942.63;5072995;28;20035;-56
2022/05/08 06:57:00;;;;;;;9.00;7.72;;;20.40;56.80;;;14.04;71.91;95934.50;5064527;28;20032;-53
2022/05/08 07:02:21;;;;;;;9.60;8.13;;;20.30;56.40;;;14.03;72.09;95940.91;5072925;28;20063;-56
2022/05/08 07:04:48;;;;;;;8.82;7.93;;;20.20;56.50;;;13.97;73.06;95946.56;5079642;28;20478;-56
2022/05/08 07:07:14;;;;;;;9.45;8.25;;;20.10;56.50;;;13.72;72.89;95942.16;5074395;28;20283;-53
2022/05/08 07:09:40;;;;;;;9.43;8.52;;;20.10;56.30;;;13.73;73.58;95943.78;5051663;28;20074;-56
2022/05/08 07:12:06;;;;;;;9.18;8.27;;;20.10;56.30;;;13.85;72.97;95941.53;5075331;28;20467;-55
2022/05/08 07:14:32;;;;;;;8.80;7.90;;;20.00;56.30;;;13.58;73.28;95937.41;5078874;28;20491;-57
2022/05/08 07:16:58;;;;;;;10.32;8.77;;;20.10;56.00;;;13.87;74.06;95950.09;5071428;28;20072;-56
2022/05/08 07:19:23;;;;;;;7.90;7.10;;;20.00;56.10;;;14.15;73.07;95943.25;5087208;28;20058;-56
2022/05/08 07:21:49;;;;;;;8.02;7.22;;;20.10;56.40;;;14.37;72.26;95942.81;5092364;28;20024;-57
2022/05/08 07:24:15;;;;;;;8.68;7.88;;;20.10;56.50;;;14.03;72.69;95946.25;5091241;28;20048;-57
2022/05/08 07:26:45;;;;;;;8.80;7.70;;;20.10;56.20;;;14.02;72.71;95928.59;5092692;28;20116;-56
2022/05/08 07:29:11;;;;;;;8.13;7.32;;;20.00;56.20;;;13.87;73.14;95948.22;5061191;28;20023;-54
2022/05/08 07:31:38;;;;;;;8.18;7.38;;;19.90;56.30;;;13.95;73.10;95949.53;5052679;28;20042;-56
2022/05/08 07:36:48;;;;;;;9.73;7.57;;;19.80;56.50;;;13.63;74.53;95949.94;5085935;28;20064;-56
2022/05/08 07:39:14;;;;;;;9.05;8.15;;;19.70;56.50;;;13.85;74.16;95954.94;5066161;28;20499;-54
2022/05/08 07:41:40;;;;;;;10.00;8.43;;;19.70;56.80;;;13.82;73.51;95952.81;5063631;28;20051;-55
2022/05/08 07:44:08;;;;;;;11.55;8.55;;;19.60;56.90;;;13.46;74.84;95962.88;5083368;28;20029;-56
2022/05/08 07:46:34;;;;;;;10.18;9.18;;;19.60;56.70;;;13.44;75.44;95963.13;5086702;28;20023;-56
2022/05/08 07:48:59;;;;;;;10.05;8.85;;;19.60;56.80;;;13.60;74.92;95964.72;5069263;28;20107;-54
2022/05/08 07:51:25;;;;;;;10.80;9.70;;;19.60;56.80;;;13.59;75.45;95964.97;5067935;28;20525;-55
2022/05/08 07:53:51;;;;;;;9.20;7.97;;;19.50;56.90;;;13.78;74.96;95973.97;5054888;28;20042;-56
2022/05/08 07:56:17;;;;;;;10.45;9.13;;;19.40;57.30;;;13.57;74.34;95969.78;5070356;28;20467;-54
2022/05/08 07:58:43;;;;;;;9.95;8.95;;;19.30;57.30;;;13.35;75.25;95965.59;5072957;28;20025;-56
2022/05/08 08:01:08;;;;;;;12.32;9.20;;;19.20;57.40;;;13.41;76.11;95969.88;5074246;28;20028;-54
2022/05/08 08:03:37;;;;;;;10.35;8.90;;;19.10;57.60;;;13.45;76.01;95980.03;5094623;28;20028;-54
2022/05/08 08:06:04;;;;;;;11.48;9.18;;;19.00;58.00;;;13.55;75.71;95974.63;5088882;28;20356;-56
2022/05/08 08:08:37;;;;;;;9.82;8.85;;;19.00;58.20;;;14.01;75.27;95977.09;5092321;28;20020;-53
2022/05/08 08:11:06;;;;;;;10.43;8.82;;;19.40;58.10;;;14.24;73.11;95964.91;5073830;28;20103;-55
2022/05/08 08:13:34;;;;;;;9.35;8.13;;;19.90;57.50;;;14.48;72.49;95973.84;5061210;28;20039;-57
2022/05/08 08:16:09;;;;;;;9.02;8.13;;;20.30;56.90;;;14.66;72.71;95971.56;5070643;28;20032;-52
2022/05/08 08:18:42;;;;;;;9.68;7.45;;;20.70;56.40;;;14.86;71.20;95965.25;5058085;28;20428;-55
2022/05/08 08:21:16;;;;;;;8.38;7.57;;;21.00;56.00;;;15.09;71.38;95972.53;5067342;28;20483;-51
2022/05/08 08:23:45;;;;;;;8.40;7.57;;;21.30;55.70;;;15.39;70.22;95970.63;5091494;28;20056;-52
2022/05/08 08:26:12;;;;;;;8.73;7.88;;;21.50;55.30;;;15.05;70.03;95974.19;5075716;28;20024;-53
2022/05/08 08:28:38;;;;;;;8.10;7.30;;;21.70;54.20;;;14.96;69.88;95971.31;5088599;28;20060;-51
2022/05/08 08:31:09;;;;;;;9.20;7.68;;;21.80;53.80;;;15.11;70.01;95980.31;5068619;28;20478;-53
2022/05/08 08:33:42;;;;;;;11.07;8.20;;;21.80;53.60;;;14.99;69.12;95973.44;5077806;28;20082;-54
2022/05/08 08:36:19;;;;;;;9.75;7.88;;;21.60;53.30;;;14.94;69.76;95984.19;5082768;28;20029;-54
2022/05/08 08:38:45;;;;;;;9.15;8.15;;;21.50;53.20;;;14.86;69.99;95989.41;5081732;28;20475;-55
2022/05/08 08:41:14;;;;;;;10.85;7.50;;;21.30;53.30;;;14.83;70.43;95982.72;5095714;28;20111;-53
2022/05/08 08:49:22;;;;;;;9.48;8.57;;;21.00;53.80;;;14.58;71.29;95981.84;5074194;28;20086;-52
2022/05/08 08:51:50;;;;;;;10.35;8.55;;;20.90;53.60;;;14.68;71.40;95986.31;5074092;28;20111;-52
2022/05/08 08:54:22;;;;;;;8.32;7.53;;;21.00;53.70;;;14.88;70.90;95981.84;5074057;28;20076;-53
2022/05/08 08:56:49;;;;;;;8.82;7.93;;;21.00;53.80;;;14.96;69.62;95982.06;5082491;28;20020;-50
2022/05/08 08:59:15;;;;;;;10.73;8.07;;;21.10;53.90;;;15.01;69.82;95979.34;5059792;28;20094;-55
2022/05/08 09:01:45;;;;;;;9.40;7.85;;;21.00;53.90;;;14.90;69.53;95979.69;5073896;28;20025;-51
2022/05/08 09:04:12;;;;;;;9.90;8.23;;;20.90;53.80;;;14.67;70.48;95984.72;5075062;28;20479;-53
2022/05/08 09:06:47;;;;;;;8.55;7.65;;;20.80;53.80;;;14.79;70.09;95982.47;5073555;28;20052;-50
2022/05/08 09:09:33;;;;;;;8.02;7.20;;;20.80;54.00;;;14.88;69.67;95979.97;5056782;28;20041;-51
2022/05/08 09:11:59;;;;;;;8.88;7.82;;;20.70;54.10;;;14.93;69.75;95982.63;5073723;28;20029;-50
2022/05/08 09:14:33;;;;;;;8.10;7.28;;;20.70;54.10;;;14.89;70.46;95986.16;5058066;28;20068;-50
2022/05/08 09:17:02;;;;;;;9.15;8.25;;;20.70;54.20;;;14.88;71.06;95989.91;5088460;28;20035;-52
2022/05/08 09:19:40;;;;;;;7.43;6.72;;;20.60;54.40;;;14.91;69.77;95984.75;5060473;28;20020;-50
2022/05/08 09:22:09;;;;;;;7.38;6.38;;;20.60;54.40;;;14.83;69.02;95990.75;5058696;28;20045;-54
2022/05/08 09:24:36;;;;;;;7.05;6.35;;;20.60;54.30;;;14.95;70.21;95993.88;5073496;28;20031;-49
2022/05/08 09:27:16;;;;;;;7.43;6.40;;;20.60;54.40;;;15.19;70.15;95987.72;5073327;28;20487;-51
2022/05/08 09:29:47;;;;;;;7.55;6.85;;;20.80;54.50;;;15.32;69.36;95980.88;5074451;28;20522;-52
2022/05/08 09:32:35;;;;;;;7.78;6.10;;;20.90;54.30;;;15.32;68.36;95992.41;5073458;28;20044;-51
2022/05/08 09:35:02;;;;;;;6.18;5.57;;;21.10;53.90;;;15.41;67.57;95981.88;5074840;28;20029;-51
2022/05/08 09:37:28;;;;;;;6.30;5.70;;;21.20;53.60;;;15.46;66.76;95982.63;5061697;28;20407;-54
2022/05/08 09:40:17;;;;;;;6.60;6.00;;;21.30;53.50;;;15.31;68.50;95981.97;5035654;28;20107;-50
2022/05/08 09:42:55;;;;;;;6.60;5.90;;;21.30;52.90;;;15.51;68.16;95987.13;5056626;28;20028;-53
2022/05/08 09:45:20;;;;;;;6.15;5.55;;;21.30;53.10;;;15.64;67.00;95982.97;5090125;28;20032;-53
2022/05/08 09:47:59;;;;;;;6.28;5.68;;;21.40;53.20;;;15.52;67.76;95969.94;5076339;28;20382;-51
2022/05/08 09:50:28;;;;;;;6.43;5.50;;;21.60;52.70;;;15.82;66.50;95965.31;5076555;28;20028;-53
2022/05/08 09:52:56;;;;;;;6.10;5.50;;;21.90;52.20;;;15.75;66.03;95967.56;5076543;28;20027;-54
2022/05/08 09:55:26;;;;;;;6.78;5.68;;;22.10;51.60;;;16.09;66.00;95976.22;5076252;28;20024;-51
2022/05/08 09:58:00;;;;;;;7.95;7.03;;;22.10;51.70;;;15.98;65.80;95969.38;5076098;28;20051;-50
2022/05/08 10:00:29;;;;;;;6.35;5.75;;;22.00;51.90;;;15.91;65.28;95966.25;5044127;28;20036;-51
2022/05/08 10:02:55;;;;;;;5.93;5.07;;;21.80;52.00;;;15.39;66.34;95973.31;5076283;28;20024;-53
2022/05/08 10:05:20;;;;;;;7.20;5.85;;;21.50;51.60;;;15.21;67.53;95972.94;5055983;28;20020;-51
2022/05/08 10:07:50;;;;;;;6.18;5.57;;;21.30;51.80;;;15.13;67.95;95968.19;5055220;28;20052;-53
2022/05/08 10:15:48;;;;;;;6.80;5.95;;;20.50;53.20;;;15.16;68.61;95972.19;5073791;28;20127;-53
2022/05/08 10:18:25;;;;;;;7.50;5.70;;;20.50;53.50;;;15.39;69.23;95986.75;5075114;28;20395;-53
2022/05/08 10:21:01;;;;;;;6.32;5.72;;;20.50;53.90;;;15.36;67.81;95974.69;5085554;28;20076;-50
2022/05/08 10:23:48;;;;;;;6.72;5.80;;;20.60;53.70;;;15.56;66.88;95979.00;5045493;28;20487;-53
2022/05/08 10:26:23;;;;;;;5.65;5.15;;;21.00;53.50;;;15.78;66.91;95978.50;5058761;28;20024;-54
2022/05/08 10:29:12;;;;;;;8.07;5.78;;;21.30;53.20;;;16.06;66.11;95971.44;5075493;28;20052;-51
2022/05/08 10:32:01;;;;;;;6.03;5.15;;;21.50;53.00;;;16.22;64.71;95966.66;5065543;28;20096;-53
2022/05/08 10:34:33;;;;;;;9.32;5.30;;;21.80;52.40;;;16.40;64.45;95970.44;5060455;28;20448;-52
2022/05/08 10:37:13;;;;;;;7.45;5.47;;;22.00;52.20;;;16.63;64.03;95971.41;5074631;28;20059;-53
2022/05/08 10:39:44;;;;;;;6.10;4.95;;;22.40;51.30;;;16.58;63.81;95974.19;5078461;28;20039;-54